Time;durP1;ratioP1;P1;durP2;ratioP2;P2;SDS_P1;SDS_P2;PMS_P1;PMS_P2;Temp;Humidity;BMP_temperature;BMP_pressure;BME280_temperature;BME280_humidity;BME280_pressure;Samples;Min_cycle;Max_cycle;Signal;HPM_P1;HPM_P2
2022/09/06 00:00:58;;;;;;;4.47;1.30;;;16.60;1.00;;;;;;5075630;28;20423;-71
2022/09/06 00:03:26;;;;;;;2.40;1.20;;;16.60;1.00;;;;;;5079764;28;20420;-71
2022/09/06 00:05:52;;;;;;;1.60;1.37;;;16.60;1.00;;;;;;5055103;28;20905;-75
2022/09/06 00:11:16;;;;;;;1.13;1.03;;;16.60;1.00;;;;;;5030502;28;20821;-71
2022/09/06 00:13:51;;;;;;;1.97;1.40;;;16.40;1.00;;;;;;5017097;28;20419;-71
2022/09/06 00:16:20;;;;;;;1.40;1.07;;;16.40;1.00;;;;;;5029016;28;20477;-72
2022/09/06 00:18:46;;;;;;;2.30;1.17;;;16.40;1.00;;;;;;5070480;28;20483;-70
2022/09/06 00:21:30;;;;;;;1.60;1.20;;;16.30;1.00;;;;;;5075487;28;20450;-71
2022/09/06 00:23:58;;;;;;;3.60;1.23;;;16.30;1.00;;;;;;5073124;28;20495;-71
2022/09/06 00:26:25;;;;;;;1.67;1.13;;;16.30;1.00;;;;;;5057532;28;20423;-72
2022/09/06 00:28:51;;;;;;;1.47;1.20;;;16.30;1.00;;;;;;5074717;28;20451;-71
2022/09/06 00:31:22;;;;;;;1.40;1.27;;;16.30;1.00;;;;;;5092845;28;20489;-70
2022/09/06 00:33:49;;;;;;;3.00;1.10;;;16.20;1.00;;;;;;5092858;28;20469;-71
2022/09/06 00:36:15;;;;;;;2.73;1.40;;;16.20;1.00;;;;;;5071617;28;20415;-72
2022/09/06 00:38:41;;;;;;;1.63;1.00;;;16.20;1.00;;;;;;5054707;28;20464;-71
2022/09/06 00:41:10;;;;;;;4.50;1.10;;;16.20;1.00;;;;;;5073306;28;20889;-72
2022/09/06 00:43:36;;;;;;;1.10;1.00;;;16.30;1.00;;;;;;5074903;28;20491;-72
2022/09/06 00:46:03;;;;;;;1.40;1.30;;;16.20;1.00;;;;;;5074250;28;20423;-73
2022/09/06 00:48:30;;;;;;;1.40;1.20;;;16.20;1.00;;;;;;5072711;28;20448;-72
2022/09/06 00:51:00;;;;;;;2.60;1.10;;;16.30;1.00;;;;;;5055794;28;20822;-72
2022/09/06 00:53:27;;;;;;;2.30;1.20;;;16.30;1.00;;;;;;5092588;28;20529;-71
2022/09/06 00:55:56;;;;;;;1.77;1.20;;;16.30;1.00;;;;;;5075933;28;20415;-71
2022/09/06 00:58:28;;;;;;;1.50;1.00;;;16.30;1.00;;;;;;5096070;28;20451;-71
2022/09/06 01:00:54;;;;;;;3.87;1.27;;;16.20;1.00;;;;;;5078327;28;20422;-70
2022/09/06 01:03:23;;;;;;;1.80;1.60;;;16.30;1.00;;;;;;5076538;28;20893;-70
2022/09/06 01:06:17;;;;;;;2.40;1.37;;;16.30;1.00;;;;;;5078682;28;20502;-71
2022/09/06 01:09:23;;;;;;;1.10;1.00;;;16.30;1.00;;;;;;5080056;28;21021;-71
2022/09/06 01:12:19;;;;;;;3.10;1.40;;;16.30;1.00;;;;;;5078440;28;20502;-70
2022/09/06 01:14:51;;;;;;;1.83;1.37;;;16.30;1.00;;;;;;5083412;28;20455;-71
2022/09/06 01:17:50;;;;;;;2.20;1.40;;;16.30;1.00;;;;;;5057492;28;20590;-71
2022/09/06 01:20:31;;;;;;;1.33;1.23;;;16.30;1.00;;;;;;5092468;28;20427;-71
2022/09/06 01:23:48;;;;;;;2.00;1.37;;;16.30;1.00;;;;;;5096288;28;20477;-70
2022/09/06 01:26:52;;;;;;;2.80;1.77;;;16.20;1.00;;;;;;5019256;28;20511;-72
2022/09/06 01:29:36;;;;;;;2.23;1.20;;;16.20;1.00;;;;;;5041610;28;20435;-71
2022/09/06 01:32:16;;;;;;;4.13;1.40;;;16.10;1.00;;;;;;5096161;28;20891;-70
2022/09/06 01:35:00;;;;;;;1.60;1.30;;;16.10;1.00;;;;;;5067700;28;20908;-71
2022/09/06 01:37:27;;;;;;;3.20;1.20;;;16.10;1.00;;;;;;5074764;28;20400;-70
2022/09/06 01:39:56;;;;;;;1.03;0.90;;;16.10;1.00;;;;;;5068388;28;20459;-71
2022/09/06 01:42:30;;;;;;;1.80;1.17;;;16.10;1.00;;;;;;5096004;28;20479;-70
2022/09/06 01:45:03;;;;;;;1.97;1.67;;;16.10;1.00;;;;;;5070121;28;20520;-72
2022/09/06 01:48:04;;;;;;;1.40;1.30;;;16.10;1.00;;;;;;5089825;28;20426;-71
2022/09/06 01:50:38;;;;;;;1.33;1.23;;;16.00;1.00;;;;;;5095758;28;20414;-71
2022/09/06 01:53:29;;;;;;;3.00;1.63;;;16.00;1.00;;;;;;5076968;28;20432;-72
2022/09/06 01:56:27;;;;;;;2.00;1.57;;;16.00;1.00;;;;;;5095815;28;20951;-72
2022/09/06 02:02:26;;;;;;;1.30;1.13;;;16.10;1.00;;;;;;5075398;28;20765;-71
2022/09/06 02:05:00;;;;;;;1.33;1.23;;;16.10;1.00;;;;;;5061293;28;20419;-71
2022/09/06 02:07:32;;;;;;;2.40;1.37;;;16.20;1.00;;;;;;5092843;28;20443;-70
2022/09/06 02:10:35;;;;;;;1.70;1.27;;;16.20;1.00;;;;;;5075667;28;20422;-71
2022/09/06 02:13:10;;;;;;;3.27;1.23;;;16.10;1.00;;;;;;5068132;28;20415;-71
2022/09/06 02:15:42;;;;;;;1.60;1.50;;;16.20;1.00;;;;;;5085662;28;20519;-72
2022/09/06 02:25:52;;;;;;;1.40;1.10;;;16.30;1.00;;;;;;5092282;28;20800;-71
2022/09/06 02:28:18;;;;;;;1.70;1.10;;;16.30;1.00;;;;;;5056401;28;20429;-71
2022/09/06 02:30:52;;;;;;;2.60;1.70;;;16.30;1.00;;;;;;5082878;28;20419;-71
2022/09/06 02:33:21;;;;;;;2.03;1.20;;;16.30;1.00;;;;;;5094815;28;20396;-72
2022/09/06 02:35:52;;;;;;;3.70;1.43;;;16.30;1.00;;;;;;5086390;28;20404;-71
2022/09/06 02:38:30;;;;;;;2.13;1.80;;;16.20;1.00;;;;;;5056105;28;20460;-71
2022/09/06 02:40:57;;;;;;;4.43;1.20;;;16.20;1.00;;;;;;5064875;28;20422;-70
2022/09/06 02:43:23;;;;;;;2.63;1.77;;;16.20;1.00;;;;;;5094342;28;20400;-72
2022/09/06 02:45:56;;;;;;;3.07;1.30;;;16.30;1.00;;;;;;5069182;28;20932;-71
2022/09/06 02:48:22;;;;;;;1.23;1.13;;;16.40;1.00;;;;;;5055830;28;20462;-71
2022/09/06 02:50:48;;;;;;;2.77;1.43;;;16.40;1.00;;;;;;5080348;28;21002;-71
2022/09/06 02:53:15;;;;;;;1.37;1.27;;;16.40;1.00;;;;;;5076674;28;20502;-71
2022/09/06 02:55:42;;;;;;;2.40;1.43;;;16.40;1.00;;;;;;5071530;28;20448;-73
2022/09/06 02:58:10;;;;;;;4.03;1.30;;;16.50;1.00;;;;;;5055534;28;20440;-71
2022/09/06 03:00:36;;;;;;;1.23;1.07;;;16.50;1.00;;;;;;5076676;28;20423;-72
2022/09/06 03:03:34;;;;;;;;;;;;;;;;;;;;;
2022/09/06 03:09:23;;;;;;;2.60;1.20;;;16.40;1.00;;;;;;5083602;28;20458;-71
2022/09/06 03:11:59;;;;;;;1.47;1.10;;;16.50;1.00;;;;;;5094166;28;20410;-72
2022/09/06 03:14:28;;;;;;;1.57;1.40;;;16.50;1.00;;;;;;5084357;28;20412;-70
2022/09/06 03:16:54;;;;;;;4.80;1.73;;;16.50;1.00;;;;;;5054801;28;20413;-73
2022/09/06 03:19:21;;;;;;;2.27;2.07;;;16.40;1.00;;;;;;5081211;28;20459;-71
2022/09/06 03:21:47;;;;;;;1.37;1.20;;;16.50;1.00;;;;;;5075905;28;20423;-70
2022/09/06 03:24:12;;;;;;;1.97;1.50;;;16.40;1.00;;;;;;5077191;28;20417;-70
2022/09/06 03:26:38;;;;;;;2.90;1.50;;;16.40;1.00;;;;;;5054942;28;20179;-71
2022/09/06 03:29:05;;;;;;;1.27;1.17;;;16.40;1.00;;;;;;5070152;28;20228;-71
2022/09/06 03:31:31;;;;;;;1.53;1.30;;;16.40;1.00;;;;;;5093694;28;20427;-71
2022/09/06 03:34:03;;;;;;;1.40;1.20;;;16.40;1.00;;;;;;5062538;28;20820;-72
2022/09/06 03:36:28;;;;;;;1.30;1.20;;;16.40;1.00;;;;;;5054629;28;20181;-71
2022/09/06 03:38:54;;;;;;;1.40;1.30;;;16.40;1.00;;;;;;5066997;28;20459;-72
2022/09/06 03:41:20;;;;;;;1.73;1.40;;;16.40;1.00;;;;;;5075655;28;20411;-72
2022/09/06 03:43:49;;;;;;;1.73;1.10;;;16.40;1.00;;;;;;5065334;28;20539;-71
2022/09/06 03:46:15;;;;;;;1.60;1.50;;;16.30;1.00;;;;;;5054777;28;20436;-71
2022/09/06 03:48:41;;;;;;;1.97;1.50;;;16.40;1.00;;;;;;5081901;28;20494;-71
2022/09/06 03:51:07;;;;;;;1.33;1.23;;;16.40;1.00;;;;;;5093766;28;20811;-71
2022/09/06 03:53:33;;;;;;;1.70;1.23;;;16.40;1.00;;;;;;5091317;28;20514;-72
2022/09/06 03:56:22;;;;;;;;;;;;;;;;;;;;;
2022/09/06 03:58:49;;;;;;;2.97;1.53;;;16.40;1.00;;;;;;5085157;28;20460;-71
2022/09/06 04:01:15;;;;;;;1.60;1.50;;;16.50;1.00;;;;;;5055499;28;20417;-71
2022/09/06 04:03:41;;;;;;;1.40;1.30;;;16.50;1.00;;;;;;5061405;28;20423;-72
2022/09/06 04:06:07;;;;;;;2.30;1.30;;;16.40;1.00;;;;;;5074459;28;20407;-72
2022/09/06 04:08:34;;;;;;;2.47;1.63;;;16.50;1.00;;;;;;5070696;28;20539;-71
2022/09/06 04:11:13;;;;;;;1.70;1.53;;;16.40;1.00;;;;;;5054804;28;20491;-72
2022/09/06 04:13:42;;;;;;;3.83;1.47;;;16.40;1.00;;;;;;5073533;28;20419;-71
2022/09/06 04:16:08;;;;;;;3.63;2.57;;;16.30;1.00;;;;;;5092376;28;20478;-71
2022/09/06 04:18:36;;;;;;;2.23;2.07;;;16.30;1.00;;;;;;5075735;28;20468;-70
2022/09/06 04:21:33;;;;;;;1.87;1.77;;;16.30;1.00;;;;;;5055391;28;20412;-71
2022/09/06 04:24:57;;;;;;;1.70;1.60;;;16.20;1.00;;;;;;5055116;28;20766;-71
2022/09/06 04:27:23;;;;;;;2.27;2.17;;;16.20;1.00;;;;;;5081500;28;20435;-70
2022/09/06 04:29:54;;;;;;;2.80;1.67;;;16.20;1.00;;;;;;5075249;28;20436;-71
2022/09/06 04:32:20;;;;;;;1.57;1.47;;;16.10;1.00;;;;;;5078569;28;20416;-73
2022/09/06 04:34:46;;;;;;;1.40;1.30;;;16.10;1.00;;;;;;5079410;28;20419;-72
2022/09/06 04:37:32;;;;;;;1.90;1.50;;;16.10;1.00;;;;;;5089048;28;20424;-71
2022/09/06 04:39:58;;;;;;;1.50;1.40;;;16.10;1.00;;;;;;5076765;28;20452;-71
2022/09/06 04:42:27;;;;;;;1.73;1.63;;;16.10;1.00;;;;;;5070358;28;20506;-71
2022/09/06 04:44:53;;;;;;;2.07;1.90;;;16.10;1.00;;;;;;5096814;28;20408;-70
2022/09/06 04:47:22;;;;;;;2.40;2.00;;;16.10;1.00;;;;;;5076618;28;20423;-72
2022/09/06 04:49:50;;;;;;;1.50;1.40;;;16.10;1.00;;;;;;5078745;28;20225;-72
2022/09/06 04:52:17;;;;;;;1.40;1.30;;;16.10;1.00;;;;;;5087047;28;20421;-71
2022/09/06 04:54:46;;;;;;;3.00;1.80;;;16.10;1.00;;;;;;5076476;28;20470;-73
2022/09/06 04:57:21;;;;;;;2.83;1.70;;;16.10;1.00;;;;;;5066037;28;20444;-71
2022/09/06 04:59:47;;;;;;;5.93;1.70;;;16.10;1.00;;;;;;5078568;28;20459;-72
2022/09/06 05:02:13;;;;;;;2.37;2.00;;;16.10;1.00;;;;;;5070858;28;20454;-73
2022/09/06 05:04:39;;;;;;;1.50;1.40;;;16.10;1.00;;;;;;5075972;28;20173;-72
2022/09/06 05:07:07;;;;;;;2.23;1.97;;;16.10;1.00;;;;;;5082740;28;20223;-71
2022/09/06 05:09:34;;;;;;;2.17;1.97;;;16.10;1.00;;;;;;5078412;28;20942;-71
2022/09/06 05:12:03;;;;;;;2.07;1.77;;;16.10;1.00;;;;;;5072316;28;20428;-71
2022/09/06 05:14:30;;;;;;;1.87;1.77;;;16.10;1.00;;;;;;5076219;28;20777;-72
2022/09/06 05:16:59;;;;;;;5.00;1.70;;;16.10;1.00;;;;;;5079851;28;20906;-72
2022/09/06 05:19:25;;;;;;;1.90;1.73;;;16.10;1.00;;;;;;5078240;28;20982;-71
2022/09/06 05:21:53;;;;;;;9.20;2.03;;;16.10;1.00;;;;;;5092201;28;20563;-72
2022/09/06 05:24:19;;;;;;;1.83;1.73;;;16.10;1.00;;;;;;5058373;28;20444;-71
2022/09/06 05:26:45;;;;;;;2.30;1.30;;;16.10;1.00;;;;;;5058862;28;20413;-69
2022/09/06 05:29:11;;;;;;;2.40;1.60;;;16.20;1.00;;;;;;5077977;28;20807;-72
2022/09/06 05:31:37;;;;;;;1.70;1.50;;;16.20;1.00;;;;;;5095628;28;20413;-71
2022/09/06 05:34:03;;;;;;;4.80;1.43;;;16.20;1.00;;;;;;5058244;28;20463;-70
2022/09/06 05:36:40;;;;;;;2.30;1.93;;;16.30;1.00;;;;;;5075018;28;20415;-71
2022/09/06 05:39:09;;;;;;;2.00;1.60;;;16.30;1.00;;;;;;5095643;28;20462;-71
2022/09/06 05:41:46;;;;;;;2.83;2.03;;;16.30;1.00;;;;;;5092290;28;20439;-71
2022/09/06 05:45:08;;;;;;;;;;;;;;;;;;;;;
2022/09/06 05:47:35;;;;;;;2.17;1.40;;;16.40;1.00;;;;;;5080377;28;20427;-70
2022/09/06 05:50:02;;;;;;;4.90;1.90;;;16.40;1.00;;;;;;5095834;28;20462;-76
2022/09/06 05:52:28;;;;;;;1.90;1.70;;;16.40;1.00;;;;;;5090388;28;20416;-69
2022/09/06 05:54:54;;;;;;;3.17;1.40;;;16.30;1.00;;;;;;5069804;28;20514;-70
2022/09/06 05:57:21;;;;;;;3.10;1.43;;;16.30;1.00;;;;;;5094376;28;20932;-69
2022/09/06 06:07:27;;;;;;;2.60;1.40;;;16.30;1.00;;;;;;5012543;28;20479;-70
2022/09/06 06:09:53;;;;;;;2.53;1.43;;;16.30;1.00;;;;;;5008244;28;20821;-70
2022/09/06 06:12:29;;;;;;;3.73;1.40;;;16.20;1.00;;;;;;4994099;28;20412;-71
2022/09/06 06:14:55;;;;;;;3.90;1.77;;;16.30;1.00;;;;;;5074773;28;20193;-72
2022/09/06 06:17:22;;;;;;;1.30;1.20;;;16.30;1.00;;;;;;5075940;28;20977;-72
2022/09/06 06:19:48;;;;;;;1.73;1.63;;;16.30;1.00;;;;;;5091525;28;20555;-72
2022/09/06 06:22:20;;;;;;;1.93;1.23;;;16.30;1.00;;;;;;5075212;28;20503;-69
2022/09/06 06:24:46;;;;;;;1.40;1.30;;;16.30;1.00;;;;;;5076998;28;20428;-72
2022/09/06 06:27:18;;;;;;;1.80;1.43;;;16.30;1.00;;;;;;5094123;28;20489;-71
2022/09/06 06:29:44;;;;;;;4.03;1.80;;;16.30;1.00;;;;;;5093538;28;20213;-72
2022/09/06 06:32:12;;;;;;;4.93;1.50;;;16.30;1.00;;;;;;5074730;28;20412;-71
2022/09/06 06:34:38;;;;;;;1.80;1.50;;;16.40;1.00;;;;;;5074464;28;20197;-72
2022/09/06 06:37:04;;;;;;;1.60;1.50;;;16.50;1.00;;;;;;5093537;28;20501;-70
2022/09/06 06:39:30;;;;;;;2.10;1.43;;;16.50;1.00;;;;;;5094720;28;20462;-70
2022/09/06 06:41:59;;;;;;;4.67;2.20;;;16.50;1.00;;;;;;5076300;28;20832;-70
2022/09/06 06:44:27;;;;;;;2.03;1.83;;;16.60;1.00;;;;;;5074565;28;20228;-71
2022/09/06 06:46:56;;;;;;;1.53;1.43;;;16.60;1.00;;;;;;5055850;28;20499;-71
2022/09/06 06:49:33;;;;;;;;;;;;;;;;;;;;;
2022/09/06 06:51:59;;;;;;;2.30;1.60;;;16.70;1.00;;;;;;5074749;28;20400;-72
2022/09/06 06:54:25;;;;;;;1.73;1.63;;;16.70;1.00;;;;;;5073331;28;20770;-72
2022/09/06 06:56:51;;;;;;;3.93;1.43;;;16.80;1.00;;;;;;5074444;28;20412;-72
2022/09/06 06:59:17;;;;;;;2.20;1.30;;;16.80;1.00;;;;;;5074004;28;20995;-72
2022/09/06 07:01:49;;;;;;;2.53;1.70;;;16.80;1.00;;;;;;5074141;28;20411;-70
2022/09/06 07:04:15;;;;;;;1.70;1.60;;;16.90;1.00;;;;;;5074123;28;20436;-70
2022/09/06 07:06:49;;;;;;;3.47;1.77;;;17.00;1.00;;;;;;5073611;28;20913;-72
2022/09/06 07:09:17;;;;;;;1.80;1.60;;;16.90;1.00;;;;;;5074233;28;20427;-71
2022/09/06 07:11:49;;;;;;;1.40;1.30;;;17.00;1.00;;;;;;5073483;28;20401;-72
2022/09/06 07:14:16;;;;;;;1.80;1.30;;;17.00;1.00;;;;;;5073928;28;20412;-73
2022/09/06 07:16:45;;;;;;;1.93;1.73;;;17.10;1.00;;;;;;5073299;28;20935;-69
2022/09/06 07:19:13;;;;;;;3.27;1.63;;;17.10;1.00;;;;;;5055806;28;20510;-72
2022/09/06 07:21:58;;;;;;;1.83;1.73;;;17.10;1.00;;;;;;5073897;28;20450;-70
2022/09/06 07:24:24;;;;;;;2.70;1.83;;;17.20;1.00;;;;;;5073948;28;20400;-72
2022/09/06 07:26:50;;;;;;;2.30;2.10;;;17.20;1.00;;;;;;5073196;28;20963;-70
2022/09/06 07:29:16;;;;;;;4.37;1.90;;;17.30;1.00;;;;;;5072835;28;20464;-72
2022/09/06 07:32:00;;;;;;;1.50;1.40;;;17.40;1.00;;;;;;5073513;28;20734;-73
2022/09/06 07:34:39;;;;;;;;;;;;;;;;;;;;;
2022/09/06 07:37:06;;;;;;;2.53;1.80;;;17.60;1.00;;;;;;5072908;28;20780;-72
2022/09/06 07:39:42;;;;;;;;;;;;;;;;;;;;;
2022/09/06 07:42:17;;;;;;;1.73;1.63;;;17.70;1.00;;;;;;5073490;28;20767;-69
2022/09/06 07:44:43;;;;;;;7.30;1.47;;;17.70;1.00;;;;;;5073574;28;20407;-70
2022/09/06 07:47:14;;;;;;;1.40;1.30;;;17.80;1.00;;;;;;5072499;28;20401;-70
2022/09/06 07:49:49;;;;;;;6.00;1.90;;;17.80;1.00;;;;;;5073390;28;20435;-72
2022/09/06 07:52:15;;;;;;;2.83;1.50;;;17.90;1.00;;;;;;5073409;28;20434;-73
2022/09/06 07:54:41;;;;;;;2.00;1.80;;;17.80;1.00;;;;;;5073552;28;20408;-70
2022/09/06 07:57:07;;;;;;;2.53;1.70;;;17.90;1.00;;;;;;5072901;28;20178;-72
2022/09/06 07:59:33;;;;;;;3.70;1.63;;;18.00;1.00;;;;;;5073090;28;20288;-69
2022/09/06 08:01:59;;;;;;;1.80;1.70;;;18.00;1.00;;;;;;5073225;28;20496;-72
2022/09/06 08:04:25;;;;;;;1.70;1.30;;;18.10;1.00;;;;;;5055116;28;20217;-72
2022/09/06 08:06:51;;;;;;;2.90;1.33;;;18.10;1.00;;;;;;5072700;28;20483;-70
2022/09/06 08:09:20;;;;;;;2.33;1.70;;;18.10;1.00;;;;;;5073194;28;20424;-71
2022/09/06 08:11:46;;;;;;;2.60;1.50;;;18.10;1.00;;;;;;5073370;28;20412;-72
2022/09/06 08:14:12;;;;;;;4.43;1.37;;;18.10;1.00;;;;;;5073022;28;20420;-72
2022/09/06 08:16:38;;;;;;;1.50;1.40;;;18.20;1.00;;;;;;5072617;28;20404;-70
2022/09/06 08:19:11;;;;;;;1.80;1.23;;;18.30;1.00;;;;;;5073107;28;20554;-69
2022/09/06 08:21:37;;;;;;;5.97;1.63;;;18.40;1.00;;;;;;5073200;28;20400;-72
2022/09/06 08:24:08;;;;;;;8.63;2.03;;;18.50;1.00;;;;;;5072550;28;20443;-73
2022/09/06 08:26:38;;;;;;;1.60;1.50;;;18.60;1.00;;;;;;5072452;28;20416;-73
2022/09/06 08:29:06;;;;;;;5.90;1.83;;;18.60;1.00;;;;;;5072973;28;20487;-73
2022/09/06 08:31:34;;;;;;;1.40;1.27;;;18.60;1.00;;;;;;5073118;28;20889;-70
2022/09/06 08:34:00;;;;;;;12.20;1.80;;;18.80;1.00;;;;;;5073067;28;20495;-69
2022/09/06 08:36:30;;;;;;;3.83;1.63;;;18.90;1.00;;;;;;5072254;28;20499;-70
2022/09/06 08:39:00;;;;;;;9.03;1.40;;;19.10;1.00;;;;;;5072978;28;20464;-70
2022/09/06 08:41:45;;;;;;;6.50;1.73;;;19.30;1.00;;;;;;5072573;28;20980;-69
2022/09/06 08:44:16;;;;;;;1.70;1.50;;;19.40;1.00;;;;;;5072762;28;20393;-71
2022/09/06 08:46:48;;;;;;;2.07;1.87;;;19.60;1.00;;;;;;5072318;28;20393;-71
2022/09/06 08:49:14;;;;;;;1.53;1.37;;;19.60;1.00;;;;;;5072789;28;20432;-73
2022/09/06 08:51:51;;;;;;;2.37;2.00;;;19.50;1.00;;;;;;5072849;28;20409;-72
2022/09/06 08:54:38;;;;;;;4.53;2.10;;;19.40;1.00;;;;;;5072722;28;20400;-73
2022/09/06 09:00:34;;;;;;;5.10;1.47;;;19.50;1.00;;;;;;5072570;28;20447;-70
2022/09/06 09:03:10;;;;;;;6.30;1.93;;;19.60;1.00;;;;;;5055062;28;20408;-73
2022/09/06 09:05:41;;;;;;;4.03;1.93;;;19.60;1.00;;;;;;5072940;28;20400;-70
2022/09/06 09:08:25;;;;;;;2.53;1.60;;;19.80;1.00;;;;;;5071989;28;20428;-74
2022/09/06 09:10:59;;;;;;;5.20;2.30;;;19.90;1.00;;;;;;5072752;28;20415;-73
2022/09/06 09:14:19;;;;;;;2.40;1.73;;;19.90;1.00;;;;;;5072474;28;20457;-72
2022/09/06 09:16:53;;;;;;;3.57;1.50;;;19.80;1.00;;;;;;4972500;28;20464;-73
2022/09/06 09:19:19;;;;;;;4.80;1.50;;;19.70;1.00;;;;;;5061252;28;20816;-71
2022/09/06 09:21:46;;;;;;;6.27;1.77;;;19.90;1.00;;;;;;5076314;28;20416;-74
2022/09/06 09:24:14;;;;;;;7.77;1.63;;;20.10;1.00;;;;;;5076250;28;20404;-71
2022/09/06 09:26:46;;;;;;;5.13;1.87;;;20.40;1.00;;;;;;5075380;28;20405;-72
2022/09/06 09:29:14;;;;;;;4.70;1.67;;;20.90;1.00;;;;;;5075951;28;20448;-70
2022/09/06 09:31:46;;;;;;;3.40;1.50;;;21.20;1.00;;;;;;5075878;28;20765;-69
2022/09/06 09:34:28;;;;;;;2.10;1.60;;;21.50;1.00;;;;;;5075636;28;20877;-69
2022/09/06 09:37:16;;;;;;;1.83;1.63;;;21.70;1.00;;;;;;5075148;28;20893;-75
2022/09/06 09:39:43;;;;;;;5.60;1.60;;;21.70;1.00;;;;;;5075663;28;20460;-76
2022/09/06 09:42:30;;;;;;;4.00;1.20;;;22.00;1.00;;;;;;5076522;28;20400;-76
2022/09/06 09:44:56;;;;;;;1.67;1.57;;;22.10;1.00;;;;;;5075632;28;20404;-76
2022/09/06 09:47:29;;;;;;;3.13;1.43;;;22.00;1.00;;;;;;5075180;28;20416;-71
2022/09/06 09:49:58;;;;;;;7.53;1.60;;;22.00;1.00;;;;;;5075920;28;20409;-70
2022/09/06 09:52:29;;;;;;;2.20;1.27;;;21.80;1.00;;;;;;5075099;28;20504;-76
2022/09/06 09:55:06;;;;;;;1.60;1.50;;;21.80;1.00;;;;;;5075371;28;20408;-70
2022/09/06 09:57:44;;;;;;;4.07;1.50;;;21.90;1.00;;;;;;5057565;28;20424;-75
2022/09/06 10:00:12;;;;;;;7.00;1.90;;;21.90;1.00;;;;;;5075632;28;20451;-75
2022/09/06 10:02:41;;;;;;;6.63;1.27;;;21.70;1.00;;;;;;5075466;28;20404;-70
2022/09/06 10:05:16;;;;;;;2.73;1.10;;;21.50;1.00;;;;;;5075246;28;20819;-69
2022/09/06 10:07:55;;;;;;;3.50;1.30;;;21.40;1.00;;;;;;5074713;28;20461;-74
2022/09/06 10:10:27;;;;;;;1.60;1.50;;;21.30;1.00;;;;;;5075315;28;20435;-73
2022/09/06 10:13:16;;;;;;;1.87;1.43;;;21.10;1.00;;;;;;5075350;28;20412;-69
2022/09/06 10:15:42;;;;;;;2.20;1.53;;;20.90;1.00;;;;;;5075313;28;20765;-74
2022/09/06 10:18:31;;;;;;;2.83;1.30;;;20.90;1.00;;;;;;5074692;28;20516;-73
2022/09/06 10:21:22;;;;;;;4.83;1.30;;;20.90;1.00;;;;;;5057189;28;20420;-73
2022/09/06 10:23:55;;;;;;;3.40;1.40;;;20.70;1.00;;;;;;5075140;28;20765;-71
2022/09/06 10:26:31;;;;;;;4.03;1.80;;;20.70;1.00;;;;;;5074044;28;20496;-71
2022/09/06 10:29:09;;;;;;;2.60;1.40;;;20.80;1.00;;;;;;5073623;28;20464;-73
2022/09/06 10:31:55;;;;;;;3.00;1.50;;;20.90;1.00;;;;;;5074942;28;20411;-70
2022/09/06 10:34:43;;;;;;;1.83;1.63;;;20.70;1.00;;;;;;5074940;28;20400;-71
2022/09/06 10:37:27;;;;;;;1.60;1.47;;;20.80;1.00;;;;;;5074121;28;20486;-72
2022/09/06 10:40:16;;;;;;;1.47;1.37;;;20.90;1.00;;;;;;5074871;28;20573;-72
2022/09/06 10:42:49;;;;;;;1.80;1.30;;;21.00;1.00;;;;;;5074316;28;20408;-70
2022/09/06 10:45:33;;;;;;;1.50;1.30;;;21.30;1.00;;;;;;5074383;28;20408;-71
2022/09/06 10:48:08;;;;;;;1.57;1.47;;;21.50;1.00;;;;;;5073814;28;20421;-73
2022/09/06 10:50:54;;;;;;;1.27;1.17;;;21.50;1.00;;;;;;5074632;28;20444;-70
2022/09/06 10:53:42;;;;;;;4.57;2.27;;;21.50;1.00;;;;;;5056506;28;20412;-74
2022/09/06 10:56:31;;;;;;;2.10;1.30;;;21.40;1.00;;;;;;5073737;28;20904;-71
2022/09/06 10:59:16;;;;;;;2.77;1.53;;;21.30;1.00;;;;;;5056307;28;20514;-74
2022/09/06 11:02:29;;;;;;;2.07;1.50;;;21.10;1.00;;;;;;5073833;28;20511;-74
2022/09/06 11:05:00;;;;;;;1.20;1.10;;;21.20;1.00;;;;;;5074210;28;20423;-74
2022/09/06 11:07:36;;;;;;;1.53;1.03;;;21.30;1.00;;;;;;5073237;28;20412;-72
2022/09/06 11:10:25;;;;;;;1.60;1.50;;;21.30;1.00;;;;;;5074499;28;20400;-73
2022/09/06 11:13:13;;;;;;;1.53;1.40;;;21.40;1.00;;;;;;5073858;28;20420;-74
2022/09/06 11:15:48;;;;;;;2.23;1.30;;;21.70;1.00;;;;;;5074083;28;20400;-70
2022/09/06 11:18:17;;;;;;;1.77;1.30;;;21.70;1.00;;;;;;5055573;28;20467;-71
2022/09/06 11:21:02;;;;;;;3.77;1.53;;;21.90;1.00;;;;;;5073780;28;20920;-72
2022/09/06 11:23:42;;;;;;;1.87;1.67;;;21.80;1.00;;;;;;5073750;28;20392;-71
2022/09/06 11:26:35;;;;;;;6.00;1.50;;;21.90;1.00;;;;;;5073209;28;20897;-74
2022/09/06 11:29:15;;;;;;;1.40;1.13;;;21.90;1.00;;;;;;5073777;28;20440;-73
2022/09/06 11:32:21;;;;;;;6.20;1.40;;;21.90;1.00;;;;;;5073603;28;20500;-71
2022/09/06 11:34:53;;;;;;;2.60;1.43;;;22.00;1.00;;;;;;5055652;28;20932;-72
2022/09/06 11:37:35;;;;;;;2.90;1.30;;;22.00;1.00;;;;;;5054986;28;20409;-70
2022/09/06 11:40:24;;;;;;;4.10;1.63;;;22.10;1.00;;;;;;5054758;28;21004;-71
2022/09/06 11:42:50;;;;;;;3.20;1.57;;;21.90;1.00;;;;;;5055142;28;20409;-72
2022/09/06 11:45:45;;;;;;;1.93;1.43;;;21.90;1.00;;;;;;5073196;28;20565;-73
2022/09/06 11:48:32;;;;;;;6.67;1.70;;;21.90;1.00;;;;;;5054685;28;20435;-72
2022/09/06 11:51:00;;;;;;;2.17;1.93;;;22.00;1.00;;;;;;5073195;28;20411;-70
2022/09/06 12:00:22;;;;;;;5.83;1.63;;;22.40;1.00;;;;;;4971768;28;20464;-70
2022/09/06 12:02:51;;;;;;;1.30;1.10;;;22.40;1.00;;;;;;4990322;28;20469;-71
2022/09/06 12:05:19;;;;;;;5.13;1.37;;;22.40;1.00;;;;;;5007847;28;20507;-69
2022/09/06 12:08:13;;;;;;;3.00;1.33;;;22.30;1.00;;;;;;5040020;28;20522;-71
2022/09/06 12:10:39;;;;;;;2.30;1.20;;;22.30;1.00;;;;;;5073038;28;20436;-72
2022/09/06 12:13:42;;;;;;;1.30;1.17;;;22.30;1.00;;;;;;5054872;28;20786;-71
2022/09/06 12:16:10;;;;;;;1.60;1.30;;;22.30;1.00;;;;;;5071909;28;20761;-77
2022/09/06 12:18:55;;;;;;;1.40;1.30;;;22.40;1.00;;;;;;5072716;28;20487;-75
2022/09/06 12:24:37;;;;;;;3.10;0.90;;;22.30;1.00;;;;;;5050968;28;20393;-71
2022/09/06 12:27:09;;;;;;;1.43;1.33;;;22.40;1.00;;;;;;5054368;28;20408;-70
2022/09/06 12:29:35;;;;;;;1.40;1.20;;;22.30;1.00;;;;;;5054554;28;20476;-70
2022/09/06 12:32:02;;;;;;;1.80;1.40;;;22.20;1.00;;;;;;5072654;28;20405;-70
2022/09/06 12:34:32;;;;;;;1.93;1.67;;;22.10;1.00;;;;;;5072105;28;20896;-73
2022/09/06 12:37:05;;;;;;;5.13;1.30;;;22.00;1.00;;;;;;5053943;28;20404;-71
2022/09/06 12:40:30;;;;;;;2.20;1.23;;;22.00;1.00;;;;;;5072452;28;20451;-73
2022/09/06 12:46:16;;;;;;;3.87;1.67;;;22.00;1.00;;;;;;5072267;28;20453;-74
2022/09/06 12:49:04;;;;;;;2.10;1.30;;;22.10;1.00;;;;;;5054556;28;20479;-73
2022/09/06 12:51:31;;;;;;;2.93;1.53;;;22.20;1.00;;;;;;5072296;28;20408;-71
2022/09/06 12:54:00;;;;;;;2.97;1.57;;;22.20;1.00;;;;;;5057855;28;20949;-72
2022/09/06 12:56:28;;;;;;;5.47;1.57;;;22.10;1.00;;;;;;5075381;28;20412;-70
2022/09/06 12:59:25;;;;;;;1.80;1.50;;;22.20;1.00;;;;;;5074820;28;20467;-71
2022/09/06 13:02:00;;;;;;;3.10;1.53;;;22.20;1.00;;;;;;5076245;28;20396;-73
2022/09/06 13:04:40;;;;;;;3.60;1.97;;;22.30;1.00;;;;;;5076035;28;20748;-73
2022/09/06 13:07:10;;;;;;;4.83;1.60;;;22.30;1.00;;;;;;5075436;28;20427;-72
2022/09/06 13:09:52;;;;;;;3.20;1.57;;;22.50;1.00;;;;;;5058101;28;20428;-73
2022/09/06 13:12:34;;;;;;;1.50;1.40;;;22.70;1.00;;;;;;5075832;28;20400;-70
2022/09/06 13:15:23;;;;;;;1.80;1.70;;;22.90;1.00;;;;;;5076122;28;20432;-73
2022/09/06 13:17:50;;;;;;;7.57;1.80;;;23.10;1.00;;;;;;5075275;28;20431;-75
2022/09/06 13:20:28;;;;;;;2.90;1.80;;;23.40;1.00;;;;;;5058036;28;20817;-71
2022/09/06 13:23:18;;;;;;;3.07;1.40;;;23.60;1.00;;;;;;5075891;28;20745;-73
2022/09/06 13:25:51;;;;;;;4.10;1.60;;;23.60;1.00;;;;;;5057797;28;20424;-75
2022/09/06 13:28:33;;;;;;;2.43;2.07;;;23.50;1.00;;;;;;5075067;28;20425;-72
2022/09/06 13:31:08;;;;;;;1.77;1.40;;;23.50;1.00;;;;;;5057624;28;20438;-70
2022/09/06 13:33:38;;;;;;;1.70;1.60;;;23.40;1.00;;;;;;5075591;28;20392;-73
2022/09/06 13:36:21;;;;;;;7.47;1.73;;;23.40;1.00;;;;;;5056915;28;20444;-75
2022/09/06 13:38:58;;;;;;;2.10;1.27;;;23.50;1.00;;;;;;5075231;28;20531;-74
2022/09/06 13:41:24;;;;;;;4.30;1.97;;;23.60;1.00;;;;;;5057478;28;20411;-70
2022/09/06 13:44:26;;;;;;;1.60;1.47;;;23.80;1.00;;;;;;5075419;28;20440;-73
2022/09/06 13:46:53;;;;;;;1.60;1.10;;;23.80;1.00;;;;;;5030978;28;20420;-70
2022/09/06 13:49:22;;;;;;;3.17;1.50;;;23.90;1.00;;;;;;5057651;28;20486;-71
2022/09/06 13:51:49;;;;;;;3.30;1.73;;;23.60;1.00;;;;;;5075317;28;20405;-70
2022/09/06 13:54:15;;;;;;;2.60;1.40;;;23.40;1.00;;;;;;5075323;28;20416;-71
2022/09/06 13:56:46;;;;;;;3.60;1.37;;;23.40;1.00;;;;;;5074452;28;20408;-71
2022/09/06 13:59:12;;;;;;;1.77;1.57;;;23.40;1.00;;;;;;5056968;28;20466;-72
2022/09/06 14:01:40;;;;;;;3.10;2.00;;;23.40;1.00;;;;;;5075204;28;20443;-74
2022/09/06 14:04:18;;;;;;;3.27;1.43;;;23.50;1.00;;;;;;5056237;28;20409;-70
2022/09/06 14:06:45;;;;;;;4.67;2.00;;;23.40;1.00;;;;;;5056246;28;20422;-72
2022/09/06 14:09:11;;;;;;;1.70;1.30;;;23.10;1.00;;;;;;5056901;28;20436;-74
2022/09/06 14:11:37;;;;;;;6.13;1.60;;;23.00;1.00;;;;;;5056985;28;20455;-70
2022/09/06 14:14:08;;;;;;;2.33;1.60;;;22.90;1.00;;;;;;5057181;28;20186;-74
2022/09/06 14:16:34;;;;;;;6.40;1.80;;;22.70;1.00;;;;;;5074114;28;20401;-74
2022/09/06 14:19:01;;;;;;;2.83;1.50;;;22.50;1.00;;;;;;5074477;28;20456;-73